<?xml version="1.0" encoding="UTF-8"?>
<gpx xmlns="http://www.topografix.com/GPX/1/1" xmlns:xsi="http://www.w3.org/2001/XMLSchema-instance" version="1.1" xsi:schemaLocation="http://www.topografix.com/GPX/1/1 http://www.topografix.com/GPX/1/1/gpx.xsd">
  <metadata>
    <name>Cal Tri Richmond 2024 - Sprint SwimBike</name>
  </metadata>
  <trk>
    <name>Cal Tri Richmond 2024 - Sprint SwimBike</name>
    <trkseg>
      <trkpt lat="38.114097" lon="-77.834525">
        <ele>83.715101</ele>
        <time>2023-05-21T08:07:19.000Z</time>
      </trkpt>
      <trkpt lat="38.113797" lon="-77.833883">
        <ele>83.7151</ele>
        <time>2023-05-21T08:07:26.000Z</time>
      </trkpt>
      <trkpt lat="38.113651" lon="-77.833483">
        <ele>83.82229</ele>
        <time>2023-05-21T08:07:30.000Z</time>
      </trkpt>
      <trkpt lat="38.113637" lon="-77.833324">
        <ele>84.300747</ele>
        <time>2023-05-21T08:07:31.000Z</time>
      </trkpt>
      <trkpt lat="38.11367" lon="-77.833148">
        <ele>84.779676</ele>
        <time>2023-05-21T08:07:33.000Z</time>
      </trkpt>
      <trkpt lat="38.113767" lon="-77.833028">
        <ele>85.306024</ele>
        <time>2023-05-21T08:07:35.000Z</time>
      </trkpt>
      <trkpt lat="38.113838" lon="-77.832989">
        <ele>85.545951</ele>
        <time>2023-05-21T08:07:36.000Z</time>
      </trkpt>
      <trkpt lat="38.114213" lon="-77.832696">
        <ele>87.123552</ele>
        <time>2023-05-21T08:07:41.000Z</time>
      </trkpt>
      <trkpt lat="38.115346" lon="-77.831729">
        <ele>92.059455</ele>
        <time>2023-05-21T08:07:56.000Z</time>
      </trkpt>
      <trkpt lat="38.115597" lon="-77.831589">
        <ele>93.085804</ele>
        <time>2023-05-21T08:07:59.000Z</time>
      </trkpt>
      <trkpt lat="38.1159" lon="-77.831456">
        <ele>94.263385</ele>
        <time>2023-05-21T08:08:03.000Z</time>
      </trkpt>
      <trkpt lat="38.116277" lon="-77.831242">
        <ele>95.797124</ele>
        <time>2023-05-21T08:08:08.000Z</time>
      </trkpt>
      <trkpt lat="38.116447" lon="-77.831055">
        <ele>96.633869</ele>
        <time>2023-05-21T08:08:11.000Z</time>
      </trkpt>
      <trkpt lat="38.117257" lon="-77.829863">
        <ele>99.343974</ele>
        <time>2023-05-21T08:08:25.000Z</time>
      </trkpt>
      <trkpt lat="38.117687" lon="-77.829344">
        <ele>100.623897</ele>
        <time>2023-05-21T08:08:32.000Z</time>
      </trkpt>
      <trkpt lat="38.117872" lon="-77.829041">
        <ele>101.453482</ele>
        <time>2023-05-21T08:08:35.000Z</time>
      </trkpt>
      <trkpt lat="38.117941" lon="-77.828903">
        <ele>101.831755</ele>
        <time>2023-05-21T08:08:36.000Z</time>
      </trkpt>
      <trkpt lat="38.118015" lon="-77.828497">
        <ele>102.748799</ele>
        <time>2023-05-21T08:08:40.000Z</time>
      </trkpt>
      <trkpt lat="38.118022" lon="-77.826546">
        <ele>106.969269</ele>
        <time>2023-05-21T08:08:57.000Z</time>
      </trkpt>
      <trkpt lat="38.118139" lon="-77.825712">
        <ele>108.70191</ele>
        <time>2023-05-21T08:09:04.000Z</time>
      </trkpt>
      <trkpt lat="38.118145" lon="-77.824864">
        <ele>110.430295</ele>
        <time>2023-05-21T08:09:11.000Z</time>
      </trkpt>
      <trkpt lat="38.118189" lon="-77.824507">
        <ele>110.639993</ele>
        <time>2023-05-21T08:09:14.000Z</time>
      </trkpt>
      <trkpt lat="38.118274" lon="-77.824267">
        <ele>110.793952</ele>
        <time>2023-05-21T08:09:16.000Z</time>
      </trkpt>
      <trkpt lat="38.118474" lon="-77.823955">
        <ele>111.030332</ele>
        <time>2023-05-21T08:09:20.000Z</time>
      </trkpt>
      <trkpt lat="38.119161" lon="-77.823173">
        <ele>111.729678</ele>
        <time>2023-05-21T08:09:30.000Z</time>
      </trkpt>
      <trkpt lat="38.11938" lon="-77.823019">
        <ele>111.718335</ele>
        <time>2023-05-21T08:09:33.000Z</time>
      </trkpt>
      <trkpt lat="38.119763" lon="-77.822862">
        <ele>111.614172</ele>
        <time>2023-05-21T08:09:37.000Z</time>
      </trkpt>
      <trkpt lat="38.119978" lon="-77.822868">
        <ele>111.560564</ele>
        <time>2023-05-21T08:09:39.000Z</time>
      </trkpt>
      <trkpt lat="38.120196" lon="-77.822961">
        <ele>111.499636</ele>
        <time>2023-05-21T08:09:42.000Z</time>
      </trkpt>
      <trkpt lat="38.120637" lon="-77.823183">
        <ele>111.376327</ele>
        <time>2023-05-21T08:09:47.000Z</time>
      </trkpt>
      <trkpt lat="38.120826" lon="-77.823259">
        <ele>111.32153</ele>
        <time>2023-05-21T08:09:49.000Z</time>
      </trkpt>
      <trkpt lat="38.121123" lon="-77.823295">
        <ele>111.340767</ele>
        <time>2023-05-21T08:09:52.000Z</time>
      </trkpt>
      <trkpt lat="38.121897" lon="-77.823192">
        <ele>111.492256</ele>
        <time>2023-05-21T08:10:01.000Z</time>
      </trkpt>
      <trkpt lat="38.122731" lon="-77.823278">
        <ele>111.664565</ele>
        <time>2023-05-21T08:10:10.000Z</time>
      </trkpt>
      <trkpt lat="38.123053" lon="-77.823251">
        <ele>111.858396</ele>
        <time>2023-05-21T08:10:14.000Z</time>
      </trkpt>
      <trkpt lat="38.123777" lon="-77.823046">
        <ele>112.32406</ele>
        <time>2023-05-21T08:10:22.000Z</time>
      </trkpt>
      <trkpt lat="38.1242" lon="-77.822909">
        <ele>112.590588</ele>
        <time>2023-05-21T08:10:27.000Z</time>
      </trkpt>
      <trkpt lat="38.124474" lon="-77.822735">
        <ele>112.774444</ele>
        <time>2023-05-21T08:10:30.000Z</time>
      </trkpt>
      <trkpt lat="38.124795" lon="-77.822485">
        <ele>112.908556</ele>
        <time>2023-05-21T08:10:34.000Z</time>
      </trkpt>
      <trkpt lat="38.125319" lon="-77.82218">
        <ele>113.111124</ele>
        <time>2023-05-21T08:10:40.000Z</time>
      </trkpt>
      <trkpt lat="38.126088" lon="-77.821466">
        <ele>113.469336</ele>
        <time>2023-05-21T08:10:51.000Z</time>
      </trkpt>
      <trkpt lat="38.126356" lon="-77.821241">
        <ele>113.635883</ele>
        <time>2023-05-21T08:10:55.000Z</time>
      </trkpt>
      <trkpt lat="38.12693" lon="-77.820981">
        <ele>113.944928</ele>
        <time>2023-05-21T08:11:02.000Z</time>
      </trkpt>
      <trkpt lat="38.127818" lon="-77.820465">
        <ele>114.380565</ele>
        <time>2023-05-21T08:11:13.000Z</time>
      </trkpt>
      <trkpt lat="38.128384" lon="-77.820218">
        <ele>114.540748</ele>
        <time>2023-05-21T08:11:20.000Z</time>
      </trkpt>
      <trkpt lat="38.12935" lon="-77.819612">
        <ele>114.815463</ele>
        <time>2023-05-21T08:11:32.000Z</time>
      </trkpt>
      <trkpt lat="38.130261" lon="-77.819333">
        <ele>115.009594</ele>
        <time>2023-05-21T08:11:42.000Z</time>
      </trkpt>
      <trkpt lat="38.13079" lon="-77.818996">
        <ele>115.132385</ele>
        <time>2023-05-21T08:11:49.000Z</time>
      </trkpt>
      <trkpt lat="38.130971" lon="-77.818907">
        <ele>115.172571</ele>
        <time>2023-05-21T08:11:51.000Z</time>
      </trkpt>
      <trkpt lat="38.131212" lon="-77.818901">
        <ele>115.216949</ele>
        <time>2023-05-21T08:11:54.000Z</time>
      </trkpt>
      <trkpt lat="38.131697" lon="-77.818981">
        <ele>115.312412</ele>
        <time>2023-05-21T08:11:59.000Z</time>
      </trkpt>
      <trkpt lat="38.131843" lon="-77.81898">
        <ele>115.341204</ele>
        <time>2023-05-21T08:12:01.000Z</time>
      </trkpt>
      <trkpt lat="38.13223" lon="-77.818923">
        <ele>115.41779</ele>
        <time>2023-05-21T08:12:05.000Z</time>
      </trkpt>
      <trkpt lat="38.132675" lon="-77.818894">
        <ele>115.503883</ele>
        <time>2023-05-21T08:12:10.000Z</time>
      </trkpt>
      <trkpt lat="38.133025" lon="-77.81882">
        <ele>115.5825</ele>
        <time>2023-05-21T08:12:14.000Z</time>
      </trkpt>
      <trkpt lat="38.133379" lon="-77.818675">
        <ele>115.670749</ele>
        <time>2023-05-21T08:12:18.000Z</time>
      </trkpt>
      <trkpt lat="38.134933" lon="-77.817792">
        <ele>116.116324</ele>
        <time>2023-05-21T08:12:37.000Z</time>
      </trkpt>
      <trkpt lat="38.135369" lon="-77.817599">
        <ele>116.261705</ele>
        <time>2023-05-21T08:12:42.000Z</time>
      </trkpt>
      <trkpt lat="38.135539" lon="-77.817567">
        <ele>116.317991</ele>
        <time>2023-05-21T08:12:44.000Z</time>
      </trkpt>
      <trkpt lat="38.135804" lon="-77.817558">
        <ele>116.399408</ele>
        <time>2023-05-21T08:12:47.000Z</time>
      </trkpt>
      <trkpt lat="38.136646" lon="-77.817752">
        <ele>116.530368</ele>
        <time>2023-05-21T08:12:57.000Z</time>
      </trkpt>
      <trkpt lat="38.137473" lon="-77.817811">
        <ele>116.579078</ele>
        <time>2023-05-21T08:13:06.000Z</time>
      </trkpt>
      <trkpt lat="38.1383" lon="-77.818114">
        <ele>116.940027</ele>
        <time>2023-05-21T08:13:16.000Z</time>
      </trkpt>
      <trkpt lat="38.139064" lon="-77.818298">
        <ele>117.53704</ele>
        <time>2023-05-21T08:13:25.000Z</time>
      </trkpt>
      <trkpt lat="38.139437" lon="-77.818276">
        <ele>117.838052</ele>
        <time>2023-05-21T08:13:29.000Z</time>
      </trkpt>
      <trkpt lat="38.140183" lon="-77.817955">
        <ele>118.270669</ele>
        <time>2023-05-21T08:13:38.000Z</time>
      </trkpt>
      <trkpt lat="38.140807" lon="-77.817671">
        <ele>118.578872</ele>
        <time>2023-05-21T08:13:45.000Z</time>
      </trkpt>
      <trkpt lat="38.141304" lon="-77.817391">
        <ele>118.835605</ele>
        <time>2023-05-21T08:13:51.000Z</time>
      </trkpt>
      <trkpt lat="38.14171" lon="-77.817059">
        <ele>118.225345</ele>
        <time>2023-05-21T08:13:56.000Z</time>
      </trkpt>
      <trkpt lat="38.141892" lon="-77.816876">
        <ele>117.92148</ele>
        <time>2023-05-21T08:13:59.000Z</time>
      </trkpt>
      <trkpt lat="38.142215" lon="-77.816459">
        <ele>117.286306</ele>
        <time>2023-05-21T08:14:04.000Z</time>
      </trkpt>
      <trkpt lat="38.142678" lon="-77.815684">
        <ele>116.439521</ele>
        <time>2023-05-21T08:14:13.000Z</time>
      </trkpt>
      <trkpt lat="38.142776" lon="-77.815485">
        <ele>116.426171</ele>
        <time>2023-05-21T08:14:15.000Z</time>
      </trkpt>
      <trkpt lat="38.142868" lon="-77.815126">
        <ele>116.404826</ele>
        <time>2023-05-21T08:14:18.000Z</time>
      </trkpt>
      <trkpt lat="38.143075" lon="-77.814133">
        <ele>116.347781</ele>
        <time>2023-05-21T08:14:27.000Z</time>
      </trkpt>
      <trkpt lat="38.143171" lon="-77.813966">
        <ele>116.335645</ele>
        <time>2023-05-21T08:14:29.000Z</time>
      </trkpt>
      <trkpt lat="38.143307" lon="-77.813939">
        <ele>116.326511</ele>
        <time>2023-05-21T08:14:31.000Z</time>
      </trkpt>
      <trkpt lat="38.143559" lon="-77.814327">
        <ele>116.806928</ele>
        <time>2023-05-21T08:14:35.000Z</time>
      </trkpt>
      <trkpt lat="38.144328" lon="-77.815438">
        <ele>118.550385</ele>
        <time>2023-05-21T08:14:48.000Z</time>
      </trkpt>
      <trkpt lat="38.144733" lon="-77.815895">
        <ele>119.325722</ele>
        <time>2023-05-21T08:14:54.000Z</time>
      </trkpt>
      <trkpt lat="38.145012" lon="-77.816171">
        <ele>119.794694</ele>
        <time>2023-05-21T08:14:58.000Z</time>
      </trkpt>
      <trkpt lat="38.145349" lon="-77.816456">
        <ele>120.342473</ele>
        <time>2023-05-21T08:15:03.000Z</time>
      </trkpt>
      <trkpt lat="38.145844" lon="-77.816778">
        <ele>121.08139</ele>
        <time>2023-05-21T08:15:09.000Z</time>
      </trkpt>
      <trkpt lat="38.146198" lon="-77.816963">
        <ele>121.468719</ele>
        <time>2023-05-21T08:15:13.000Z</time>
      </trkpt>
      <trkpt lat="38.146585" lon="-77.817119">
        <ele>121.611475</ele>
        <time>2023-05-21T08:15:18.000Z</time>
      </trkpt>
      <trkpt lat="38.147153" lon="-77.817284">
        <ele>121.812231</ele>
        <time>2023-05-21T08:15:24.000Z</time>
      </trkpt>
      <trkpt lat="38.148832" lon="-77.817619">
        <ele>121.903724</ele>
        <time>2023-05-21T08:15:43.000Z</time>
      </trkpt>
      <trkpt lat="38.149555" lon="-77.817797">
        <ele>121.795109</ele>
        <time>2023-05-21T08:15:51.000Z</time>
      </trkpt>
      <trkpt lat="38.149867" lon="-77.817907">
        <ele>121.827607</ele>
        <time>2023-05-21T08:15:55.000Z</time>
      </trkpt>
      <trkpt lat="38.150275" lon="-77.818087">
        <ele>121.890087</ele>
        <time>2023-05-21T08:16:00.000Z</time>
      </trkpt>
      <trkpt lat="38.150484" lon="-77.818203">
        <ele>121.922493</ele>
        <time>2023-05-21T08:16:03.000Z</time>
      </trkpt>
      <trkpt lat="38.150937" lon="-77.818524">
        <ele>121.997161</ele>
        <time>2023-05-21T08:16:09.000Z</time>
      </trkpt>
      <trkpt lat="38.151176" lon="-77.818736">
        <ele>122.039283</ele>
        <time>2023-05-21T08:16:12.000Z</time>
      </trkpt>
      <trkpt lat="38.151481" lon="-77.819027">
        <ele>122.397162</ele>
        <time>2023-05-21T08:16:16.000Z</time>
      </trkpt>
      <trkpt lat="38.152023" lon="-77.819598">
        <ele>123.167396</ele>
        <time>2023-05-21T08:16:24.000Z</time>
      </trkpt>
      <trkpt lat="38.152184" lon="-77.81975">
        <ele>123.374876</ele>
        <time>2023-05-21T08:16:26.000Z</time>
      </trkpt>
      <trkpt lat="38.153333" lon="-77.820974">
        <ele>125.032371</ele>
        <time>2023-05-21T08:16:43.000Z</time>
      </trkpt>
      <trkpt lat="38.153628" lon="-77.821234">
        <ele>125.437571</ele>
        <time>2023-05-21T08:16:47.000Z</time>
      </trkpt>
      <trkpt lat="38.154219" lon="-77.821747">
        <ele>125.968544</ele>
        <time>2023-05-21T08:16:55.000Z</time>
      </trkpt>
      <trkpt lat="38.154616" lon="-77.822049">
        <ele>125.90757</ele>
        <time>2023-05-21T08:17:00.000Z</time>
      </trkpt>
      <trkpt lat="38.155277" lon="-77.822479">
        <ele>125.812124</ele>
        <time>2023-05-21T08:17:08.000Z</time>
      </trkpt>
      <trkpt lat="38.155943" lon="-77.822834">
        <ele>125.582805</ele>
        <time>2023-05-21T08:17:16.000Z</time>
      </trkpt>
      <trkpt lat="38.158002" lon="-77.823744">
        <ele>125.145471</ele>
        <time>2023-05-21T08:17:40.000Z</time>
      </trkpt>
      <trkpt lat="38.158138" lon="-77.823836">
        <ele>125.233242</ele>
        <time>2023-05-21T08:17:42.000Z</time>
      </trkpt>
      <trkpt lat="38.159544" lon="-77.824517">
        <ele>126.378962</ele>
        <time>2023-05-21T08:17:59.000Z</time>
      </trkpt>
      <trkpt lat="38.161054" lon="-77.825494">
        <ele>128.210577</ele>
        <time>2023-05-21T08:18:18.000Z</time>
      </trkpt>
      <trkpt lat="38.161523" lon="-77.82575">
        <ele>128.632461</ele>
        <time>2023-05-21T08:18:24.000Z</time>
      </trkpt>
      <trkpt lat="38.162121" lon="-77.826">
        <ele>129.138308</ele>
        <time>2023-05-21T08:18:31.000Z</time>
      </trkpt>
      <trkpt lat="38.162567" lon="-77.826204">
        <ele>129.351661</ele>
        <time>2023-05-21T08:18:36.000Z</time>
      </trkpt>
      <trkpt lat="38.162983" lon="-77.826466">
        <ele>129.441944</ele>
        <time>2023-05-21T08:18:41.000Z</time>
      </trkpt>
      <trkpt lat="38.163476" lon="-77.826834">
        <ele>129.55385</ele>
        <time>2023-05-21T08:18:47.000Z</time>
      </trkpt>
      <trkpt lat="38.163867" lon="-77.827206">
        <ele>129.645315</ele>
        <time>2023-05-21T08:18:52.000Z</time>
      </trkpt>
      <trkpt lat="38.164235" lon="-77.827717">
        <ele>129.287404</ele>
        <time>2023-05-21T08:18:58.000Z</time>
      </trkpt>
      <trkpt lat="38.164259" lon="-77.827745">
        <ele>129.272886</ele>
        <time>2023-05-21T08:18:58.000Z</time>
      </trkpt>
      <trkpt lat="38.164781" lon="-77.828542">
        <ele>128.737069</ele>
        <time>2023-05-21T08:19:07.000Z</time>
      </trkpt>
      <trkpt lat="38.164847" lon="-77.828693">
        <ele>128.64759</ele>
        <time>2023-05-21T08:19:09.000Z</time>
      </trkpt>
      <trkpt lat="38.164964" lon="-77.82906">
        <ele>128.387245</ele>
        <time>2023-05-21T08:19:12.000Z</time>
      </trkpt>
      <trkpt lat="38.164991" lon="-77.829139">
        <ele>128.263535</ele>
        <time>2023-05-21T08:19:13.000Z</time>
      </trkpt>
      <trkpt lat="38.165105" lon="-77.829752">
        <ele>127.321713</ele>
        <time>2023-05-21T08:19:19.000Z</time>
      </trkpt>
      <trkpt lat="38.165148" lon="-77.830239">
        <ele>126.564659</ele>
        <time>2023-05-21T08:19:23.000Z</time>
      </trkpt>
      <trkpt lat="38.165137" lon="-77.830587">
        <ele>126.041895</ele>
        <time>2023-05-21T08:19:26.000Z</time>
      </trkpt>
      <trkpt lat="38.165086" lon="-77.830847">
        <ele>125.64622</ele>
        <time>2023-05-21T08:19:28.000Z</time>
      </trkpt>
      <trkpt lat="38.165036" lon="-77.831301">
        <ele>124.938448</ele>
        <time>2023-05-21T08:19:32.000Z</time>
      </trkpt>
      <trkpt lat="38.165005" lon="-77.831466">
        <ele>124.560164</ele>
        <time>2023-05-21T08:19:33.000Z</time>
      </trkpt>
      <trkpt lat="38.165001" lon="-77.831497">
        <ele>124.464605</ele>
        <time>2023-05-21T08:19:33.000Z</time>
      </trkpt>
      <trkpt lat="38.164973" lon="-77.832052">
        <ele>123.246767</ele>
        <time>2023-05-21T08:19:38.000Z</time>
      </trkpt>
      <trkpt lat="38.165053" lon="-77.833086">
        <ele>120.980443</ele>
        <time>2023-05-21T08:19:47.000Z</time>
      </trkpt>
      <trkpt lat="38.165089" lon="-77.834151">
        <ele>118.591995</ele>
        <time>2023-05-21T08:19:56.000Z</time>
      </trkpt>
      <trkpt lat="38.165184" lon="-77.834895">
        <ele>116.887451</ele>
        <time>2023-05-21T08:20:03.000Z</time>
      </trkpt>
      <trkpt lat="38.165322" lon="-77.835743">
        <ele>114.914369</ele>
        <time>2023-05-21T08:20:11.000Z</time>
      </trkpt>
      <trkpt lat="38.165314" lon="-77.836269">
        <ele>114.375719</ele>
        <time>2023-05-21T08:20:16.000Z</time>
      </trkpt>
      <trkpt lat="38.165356" lon="-77.836416">
        <ele>114.226244</ele>
        <time>2023-05-21T08:20:17.000Z</time>
      </trkpt>
      <trkpt lat="38.165655" lon="-77.836869">
        <ele>113.664187</ele>
        <time>2023-05-21T08:20:22.000Z</time>
      </trkpt>
      <trkpt lat="38.165762" lon="-77.837014">
        <ele>113.475466</ele>
        <time>2023-05-21T08:20:24.000Z</time>
      </trkpt>
      <trkpt lat="38.166242" lon="-77.83742">
        <ele>112.784319</ele>
        <time>2023-05-21T08:20:30.000Z</time>
      </trkpt>
      <trkpt lat="38.166395" lon="-77.837578">
        <ele>112.739059</ele>
        <time>2023-05-21T08:20:32.000Z</time>
      </trkpt>
      <trkpt lat="38.166654" lon="-77.837889">
        <ele>112.978333</ele>
        <time>2023-05-21T08:20:36.000Z</time>
      </trkpt>
      <trkpt lat="38.167169" lon="-77.838606">
        <ele>113.484548</ele>
        <time>2023-05-21T08:20:44.000Z</time>
      </trkpt>
      <trkpt lat="38.168004" lon="-77.839501">
        <ele>113.744013</ele>
        <time>2023-05-21T08:20:56.000Z</time>
      </trkpt>
      <trkpt lat="38.168172" lon="-77.839641">
        <ele>113.70321</ele>
        <time>2023-05-21T08:20:58.000Z</time>
      </trkpt>
      <trkpt lat="38.168485" lon="-77.839839">
        <ele>113.622102</ele>
        <time>2023-05-21T08:21:02.000Z</time>
      </trkpt>
      <trkpt lat="38.170019" lon="-77.840521">
        <ele>112.944744</ele>
        <time>2023-05-21T08:21:20.000Z</time>
      </trkpt>
      <trkpt lat="38.17091" lon="-77.840991">
        <ele>112.369645</ele>
        <time>2023-05-21T08:21:31.000Z</time>
      </trkpt>
      <trkpt lat="38.171746" lon="-77.841436">
        <ele>111.654749</ele>
        <time>2023-05-21T08:21:41.000Z</time>
      </trkpt>
      <trkpt lat="38.172393" lon="-77.841798">
        <ele>111.09379</ele>
        <time>2023-05-21T08:21:49.000Z</time>
      </trkpt>
      <trkpt lat="38.17293" lon="-77.842153">
        <ele>109.618804</ele>
        <time>2023-05-21T08:21:56.000Z</time>
      </trkpt>
      <trkpt lat="38.17354" lon="-77.842657">
        <ele>107.47429</ele>
        <time>2023-05-21T08:22:04.000Z</time>
      </trkpt>
      <trkpt lat="38.175204" lon="-77.84406">
        <ele>99.545676</ele>
        <time>2023-05-21T08:22:26.000Z</time>
      </trkpt>
      <trkpt lat="38.175409" lon="-77.84432">
        <ele>98.358934</ele>
        <time>2023-05-21T08:22:29.000Z</time>
      </trkpt>
      <trkpt lat="38.175593" lon="-77.844648">
        <ele>97.521717</ele>
        <time>2023-05-21T08:22:33.000Z</time>
      </trkpt>
      <trkpt lat="38.175747" lon="-77.844914">
        <ele>97.070638</ele>
        <time>2023-05-21T08:22:36.000Z</time>
      </trkpt>
      <trkpt lat="38.175924" lon="-77.845064">
        <ele>96.691664</ele>
        <time>2023-05-21T08:22:38.000Z</time>
      </trkpt>
      <trkpt lat="38.176064" lon="-77.845141">
        <ele>96.457139</ele>
        <time>2023-05-21T08:22:40.000Z</time>
      </trkpt>
      <trkpt lat="38.176206" lon="-77.845223">
        <ele>96.170335</ele>
        <time>2023-05-21T08:22:42.000Z</time>
      </trkpt>
      <trkpt lat="38.176466" lon="-77.845367">
        <ele>95.679724</ele>
        <time>2023-05-21T08:22:45.000Z</time>
      </trkpt>
      <trkpt lat="38.177162" lon="-77.845714">
        <ele>95.671253</ele>
        <time>2023-05-21T08:22:53.000Z</time>
      </trkpt>
      <trkpt lat="38.177771" lon="-77.846119">
        <ele>98.20693</ele>
        <time>2023-05-21T08:23:01.000Z</time>
      </trkpt>
      <trkpt lat="38.178183" lon="-77.846511">
        <ele>100.151041</ele>
        <time>2023-05-21T08:23:07.000Z</time>
      </trkpt>
      <trkpt lat="38.179895" lon="-77.848163">
        <ele>111.093776</ele>
        <time>2023-05-21T08:23:31.000Z</time>
      </trkpt>
      <trkpt lat="38.181798" lon="-77.849945">
        <ele>119.115538</ele>
        <time>2023-05-21T08:23:57.000Z</time>
      </trkpt>
      <trkpt lat="38.182359" lon="-77.850537">
        <ele>120.70761</ele>
        <time>2023-05-21T08:24:05.000Z</time>
      </trkpt>
      <trkpt lat="38.182893" lon="-77.85115">
        <ele>122.063159</ele>
        <time>2023-05-21T08:24:13.000Z</time>
      </trkpt>
      <trkpt lat="38.183241" lon="-77.851487">
        <ele>122.575845</ele>
        <time>2023-05-21T08:24:18.000Z</time>
      </trkpt>
      <trkpt lat="38.183764" lon="-77.851879">
        <ele>123.255174</ele>
        <time>2023-05-21T08:24:25.000Z</time>
      </trkpt>
      <trkpt lat="38.184041" lon="-77.852089">
        <ele>123.628709</ele>
        <time>2023-05-21T08:24:29.000Z</time>
      </trkpt>
      <trkpt lat="38.184425" lon="-77.85232">
        <ele>124.234331</ele>
        <time>2023-05-21T08:24:34.000Z</time>
      </trkpt>
      <trkpt lat="38.184726" lon="-77.85248">
        <ele>124.842743</ele>
        <time>2023-05-21T08:24:38.000Z</time>
      </trkpt>
      <trkpt lat="38.185258" lon="-77.852732">
        <ele>125.910393</ele>
        <time>2023-05-21T08:24:44.000Z</time>
      </trkpt>
      <trkpt lat="38.186747" lon="-77.853259">
        <ele>128.744821</ele>
        <time>2023-05-21T08:25:01.000Z</time>
      </trkpt>
      <trkpt lat="38.187951" lon="-77.853727">
        <ele>130.453607</ele>
        <time>2023-05-21T08:25:15.000Z</time>
      </trkpt>
      <trkpt lat="38.188103" lon="-77.853789">
        <ele>130.397473</ele>
        <time>2023-05-21T08:25:17.000Z</time>
      </trkpt>
      <trkpt lat="38.188799" lon="-77.854168">
        <ele>130.146595</ele>
        <time>2023-05-21T08:25:25.000Z</time>
      </trkpt>
      <trkpt lat="38.186868" lon="-77.857462">
        <ele>125.568285</ele>
        <time>2023-05-21T08:26:01.000Z</time>
      </trkpt>
      <trkpt lat="38.186671" lon="-77.857747">
        <ele>125.183031</ele>
        <time>2023-05-21T08:26:04.000Z</time>
      </trkpt>
      <trkpt lat="38.186442" lon="-77.858079">
        <ele>124.732074</ele>
        <time>2023-05-21T08:26:08.000Z</time>
      </trkpt>
      <trkpt lat="38.186197" lon="-77.858294">
        <ele>124.34082</ele>
        <time>2023-05-21T08:26:11.000Z</time>
      </trkpt>
      <trkpt lat="38.185943" lon="-77.858448">
        <ele>124.209613</ele>
        <time>2023-05-21T08:26:14.000Z</time>
      </trkpt>
      <trkpt lat="38.185773" lon="-77.858514">
        <ele>124.146209</ele>
        <time>2023-05-21T08:26:16.000Z</time>
      </trkpt>
      <trkpt lat="38.185425" lon="-77.858624">
        <ele>124.003791</ele>
        <time>2023-05-21T08:26:20.000Z</time>
      </trkpt>
      <trkpt lat="38.184715" lon="-77.858719">
        <ele>123.733429</ele>
        <time>2023-05-21T08:26:28.000Z</time>
      </trkpt>
      <trkpt lat="38.183177" lon="-77.858901">
        <ele>123.406861</ele>
        <time>2023-05-21T08:26:45.000Z</time>
      </trkpt>
      <trkpt lat="38.18189" lon="-77.859069">
        <ele>122.567777</ele>
        <time>2023-05-21T08:26:59.000Z</time>
      </trkpt>
      <trkpt lat="38.17937" lon="-77.859367">
        <ele>119.336089</ele>
        <time>2023-05-21T08:27:27.000Z</time>
      </trkpt>
      <trkpt lat="38.178393" lon="-77.859506">
        <ele>118.057319</ele>
        <time>2023-05-21T08:27:38.000Z</time>
      </trkpt>
      <trkpt lat="38.177064" lon="-77.859681">
        <ele>116.555022</ele>
        <time>2023-05-21T08:27:53.000Z</time>
      </trkpt>
      <trkpt lat="38.17688" lon="-77.859725">
        <ele>116.401284</ele>
        <time>2023-05-21T08:27:55.000Z</time>
      </trkpt>
      <trkpt lat="38.176708" lon="-77.859766">
        <ele>116.263554</ele>
        <time>2023-05-21T08:27:57.000Z</time>
      </trkpt>
      <trkpt lat="38.176408" lon="-77.859926">
        <ele>116.015401</ele>
        <time>2023-05-21T08:28:01.000Z</time>
      </trkpt>
      <trkpt lat="38.176179" lon="-77.860105">
        <ele>115.802199</ele>
        <time>2023-05-21T08:28:04.000Z</time>
      </trkpt>
      <trkpt lat="38.17589" lon="-77.860435">
        <ele>115.49042</ele>
        <time>2023-05-21T08:28:08.000Z</time>
      </trkpt>
      <trkpt lat="38.175664" lon="-77.860771">
        <ele>115.253826</ele>
        <time>2023-05-21T08:28:12.000Z</time>
      </trkpt>
      <trkpt lat="38.17492" lon="-77.862096">
        <ele>114.778546</ele>
        <time>2023-05-21T08:28:26.000Z</time>
      </trkpt>
      <trkpt lat="38.174709" lon="-77.8624">
        <ele>114.661528</ele>
        <time>2023-05-21T08:28:30.000Z</time>
      </trkpt>
      <trkpt lat="38.1745" lon="-77.86266">
        <ele>114.423505</ele>
        <time>2023-05-21T08:28:33.000Z</time>
      </trkpt>
      <trkpt lat="38.174155" lon="-77.862939">
        <ele>113.985293</ele>
        <time>2023-05-21T08:28:38.000Z</time>
      </trkpt>
      <trkpt lat="38.172593" lon="-77.863931">
        <ele>112.260343</ele>
        <time>2023-05-21T08:28:57.000Z</time>
      </trkpt>
      <trkpt lat="38.172175" lon="-77.864131">
        <ele>111.87344</ele>
        <time>2023-05-21T08:29:02.000Z</time>
      </trkpt>
      <trkpt lat="38.171862" lon="-77.864235">
        <ele>111.602519</ele>
        <time>2023-05-21T08:29:06.000Z</time>
      </trkpt>
      <trkpt lat="38.171526" lon="-77.864292">
        <ele>111.310864</ele>
        <time>2023-05-21T08:29:10.000Z</time>
      </trkpt>
      <trkpt lat="38.169144" lon="-77.864598">
        <ele>110.260267</ele>
        <time>2023-05-21T08:29:37.000Z</time>
      </trkpt>
      <trkpt lat="38.168489" lon="-77.864547">
        <ele>109.279358</ele>
        <time>2023-05-21T08:29:44.000Z</time>
      </trkpt>
      <trkpt lat="38.167981" lon="-77.864412">
        <ele>108.490141</ele>
        <time>2023-05-21T08:29:50.000Z</time>
      </trkpt>
      <trkpt lat="38.167549" lon="-77.864252">
        <ele>107.735483</ele>
        <time>2023-05-21T08:29:55.000Z</time>
      </trkpt>
      <trkpt lat="38.166699" lon="-77.863901">
        <ele>106.13901</ele>
        <time>2023-05-21T08:30:05.000Z</time>
      </trkpt>
      <trkpt lat="38.166417" lon="-77.863801">
        <ele>105.615823</ele>
        <time>2023-05-21T08:30:08.000Z</time>
      </trkpt>
      <trkpt lat="38.166111" lon="-77.863752">
        <ele>105.03765</ele>
        <time>2023-05-21T08:30:11.000Z</time>
      </trkpt>
      <trkpt lat="38.164826" lon="-77.863765">
        <ele>105.002318</ele>
        <time>2023-05-21T08:30:25.000Z</time>
      </trkpt>
      <trkpt lat="38.163928" lon="-77.863783">
        <ele>104.749585</ele>
        <time>2023-05-21T08:30:35.000Z</time>
      </trkpt>
      <trkpt lat="38.162844" lon="-77.863799">
        <ele>103.955807</ele>
        <time>2023-05-21T08:30:47.000Z</time>
      </trkpt>
      <trkpt lat="38.161296" lon="-77.863829">
        <ele>100.916247</ele>
        <time>2023-05-21T08:31:04.000Z</time>
      </trkpt>
      <trkpt lat="38.160911" lon="-77.863886">
        <ele>100.00725</ele>
        <time>2023-05-21T08:31:08.000Z</time>
      </trkpt>
      <trkpt lat="38.160724" lon="-77.863958">
        <ele>99.513217</ele>
        <time>2023-05-21T08:31:10.000Z</time>
      </trkpt>
      <trkpt lat="38.160035" lon="-77.862044">
        <ele>93.556962</ele>
        <time>2023-05-21T08:31:28.000Z</time>
      </trkpt>
      <trkpt lat="38.15991" lon="-77.861563">
        <ele>92.748432</ele>
        <time>2023-05-21T08:31:32.000Z</time>
      </trkpt>
      <trkpt lat="38.159659" lon="-77.860421">
        <ele>91.967729</ele>
        <time>2023-05-21T08:31:42.000Z</time>
      </trkpt>
      <trkpt lat="38.159482" lon="-77.859183">
        <ele>92.660831</ele>
        <time>2023-05-21T08:31:53.000Z</time>
      </trkpt>
      <trkpt lat="38.159422" lon="-77.85847">
        <ele>94.675408</ele>
        <time>2023-05-21T08:31:59.000Z</time>
      </trkpt>
      <trkpt lat="38.159425" lon="-77.857885">
        <ele>96.286341</ele>
        <time>2023-05-21T08:32:04.000Z</time>
      </trkpt>
      <trkpt lat="38.159496" lon="-77.857465">
        <ele>97.497335</ele>
        <time>2023-05-21T08:32:08.000Z</time>
      </trkpt>
      <trkpt lat="38.159554" lon="-77.857245">
        <ele>98.055812</ele>
        <time>2023-05-21T08:32:10.000Z</time>
      </trkpt>
      <trkpt lat="38.159729" lon="-77.85675">
        <ele>99.365501</ele>
        <time>2023-05-21T08:32:15.000Z</time>
      </trkpt>
      <trkpt lat="38.159927" lon="-77.856322">
        <ele>100.537982</ele>
        <time>2023-05-21T08:32:19.000Z</time>
      </trkpt>
      <trkpt lat="38.160177" lon="-77.85597">
        <ele>101.650852</ele>
        <time>2023-05-21T08:32:23.000Z</time>
      </trkpt>
      <trkpt lat="38.160738" lon="-77.855379">
        <ele>103.618361</ele>
        <time>2023-05-21T08:32:31.000Z</time>
      </trkpt>
      <trkpt lat="38.161434" lon="-77.854686">
        <ele>105.348681</ele>
        <time>2023-05-21T08:32:41.000Z</time>
      </trkpt>
      <trkpt lat="38.162059" lon="-77.853951">
        <ele>106.900401</ele>
        <time>2023-05-21T08:32:50.000Z</time>
      </trkpt>
      <trkpt lat="38.162344" lon="-77.853552">
        <ele>107.477791</ele>
        <time>2023-05-21T08:32:55.000Z</time>
      </trkpt>
      <trkpt lat="38.16254" lon="-77.853187">
        <ele>107.933315</ele>
        <time>2023-05-21T08:32:59.000Z</time>
      </trkpt>
      <trkpt lat="38.162694" lon="-77.852775">
        <ele>108.423809</ele>
        <time>2023-05-21T08:33:03.000Z</time>
      </trkpt>
      <trkpt lat="38.162962" lon="-77.852061">
        <ele>109.136407</ele>
        <time>2023-05-21T08:33:10.000Z</time>
      </trkpt>
      <trkpt lat="38.163156" lon="-77.851472">
        <ele>109.316028</ele>
        <time>2023-05-21T08:33:16.000Z</time>
      </trkpt>
      <trkpt lat="38.163353" lon="-77.8508">
        <ele>109.520387</ele>
        <time>2023-05-21T08:33:22.000Z</time>
      </trkpt>
      <trkpt lat="38.163596" lon="-77.849645">
        <ele>110.18837</ele>
        <time>2023-05-21T08:33:32.000Z</time>
      </trkpt>
      <trkpt lat="38.163881" lon="-77.848144">
        <ele>111.860487</ele>
        <time>2023-05-21T08:33:46.000Z</time>
      </trkpt>
      <trkpt lat="38.164109" lon="-77.846675">
        <ele>113.104533</ele>
        <time>2023-05-21T08:33:59.000Z</time>
      </trkpt>
      <trkpt lat="38.16422" lon="-77.843708">
        <ele>114.51398</ele>
        <time>2023-05-21T08:34:25.000Z</time>
      </trkpt>
      <trkpt lat="38.164255" lon="-77.843465">
        <ele>114.586664</ele>
        <time>2023-05-21T08:34:27.000Z</time>
      </trkpt>
      <trkpt lat="38.164278" lon="-77.843282">
        <ele>114.641735</ele>
        <time>2023-05-21T08:34:29.000Z</time>
      </trkpt>
      <trkpt lat="38.164531" lon="-77.842548">
        <ele>114.740547</ele>
        <time>2023-05-21T08:34:36.000Z</time>
      </trkpt>
      <trkpt lat="38.164585" lon="-77.842264">
        <ele>114.77864</ele>
        <time>2023-05-21T08:34:39.000Z</time>
      </trkpt>
      <trkpt lat="38.164617" lon="-77.840863">
        <ele>114.79912</ele>
        <time>2023-05-21T08:34:51.000Z</time>
      </trkpt>
      <trkpt lat="38.164603" lon="-77.840453">
        <ele>114.516894</ele>
        <time>2023-05-21T08:34:55.000Z</time>
      </trkpt>
      <trkpt lat="38.164619" lon="-77.84003">
        <ele>114.223561</ele>
        <time>2023-05-21T08:34:59.000Z</time>
      </trkpt>
      <trkpt lat="38.164758" lon="-77.839368">
        <ele>113.740722</ele>
        <time>2023-05-21T08:35:05.000Z</time>
      </trkpt>
      <trkpt lat="38.164841" lon="-77.838966">
        <ele>113.45804</ele>
        <time>2023-05-21T08:35:09.000Z</time>
      </trkpt>
      <trkpt lat="38.164921" lon="-77.838046">
        <ele>113.502839</ele>
        <time>2023-05-21T08:35:17.000Z</time>
      </trkpt>
      <trkpt lat="38.165026" lon="-77.837147">
        <ele>113.690136</ele>
        <time>2023-05-21T08:35:25.000Z</time>
      </trkpt>
      <trkpt lat="38.165274" lon="-77.836323">
        <ele>114.304864</ele>
        <time>2023-05-21T08:35:33.000Z</time>
      </trkpt>
      <trkpt lat="38.165311" lon="-77.83628">
        <ele>114.432926</ele>
        <time>2023-05-21T08:35:34.000Z</time>
      </trkpt>
      <trkpt lat="38.165319" lon="-77.83575">
        <ele>115.42562</ele>
        <time>2023-05-21T08:35:39.000Z</time>
      </trkpt>
      <trkpt lat="38.165175" lon="-77.834889">
        <ele>117.07554</ele>
        <time>2023-05-21T08:35:47.000Z</time>
      </trkpt>
      <trkpt lat="38.16509" lon="-77.834156">
        <ele>118.573505</ele>
        <time>2023-05-21T08:35:53.000Z</time>
      </trkpt>
      <trkpt lat="38.165052" lon="-77.833092">
        <ele>120.998045</ele>
        <time>2023-05-21T08:36:02.000Z</time>
      </trkpt>
      <trkpt lat="38.164972" lon="-77.832049">
        <ele>123.334271</ele>
        <time>2023-05-21T08:36:11.000Z</time>
      </trkpt>
      <trkpt lat="38.165" lon="-77.831509">
        <ele>124.344251</ele>
        <time>2023-05-21T08:36:16.000Z</time>
      </trkpt>
      <trkpt lat="38.165013" lon="-77.831468">
        <ele>124.423493</ele>
        <time>2023-05-21T08:36:16.000Z</time>
      </trkpt>
      <trkpt lat="38.165027" lon="-77.831285">
        <ele>124.737211</ele>
        <time>2023-05-21T08:36:18.000Z</time>
      </trkpt>
      <trkpt lat="38.1651" lon="-77.830856">
        <ele>125.556143</ele>
        <time>2023-05-21T08:36:22.000Z</time>
      </trkpt>
      <trkpt lat="38.16513" lon="-77.830596">
        <ele>126.036902</ele>
        <time>2023-05-21T08:36:24.000Z</time>
      </trkpt>
      <trkpt lat="38.165153" lon="-77.830238">
        <ele>126.672022</ele>
        <time>2023-05-21T08:36:27.000Z</time>
      </trkpt>
      <trkpt lat="38.165091" lon="-77.829748">
        <ele>127.541958</ele>
        <time>2023-05-21T08:36:31.000Z</time>
      </trkpt>
      <trkpt lat="38.164979" lon="-77.829137">
        <ele>128.082074</ele>
        <time>2023-05-21T08:36:36.000Z</time>
      </trkpt>
      <trkpt lat="38.164955" lon="-77.829063">
        <ele>128.153027</ele>
        <time>2023-05-21T08:36:37.000Z</time>
      </trkpt>
      <trkpt lat="38.164861" lon="-77.828693">
        <ele>128.490991</ele>
        <time>2023-05-21T08:36:40.000Z</time>
      </trkpt>
      <trkpt lat="38.164786" lon="-77.828533">
        <ele>128.64148</ele>
        <time>2023-05-21T08:36:42.000Z</time>
      </trkpt>
      <trkpt lat="38.164255" lon="-77.827733">
        <ele>129.469772</ele>
        <time>2023-05-21T08:36:51.000Z</time>
      </trkpt>
      <trkpt lat="38.164229" lon="-77.827718">
        <ele>129.471005</ele>
        <time>2023-05-21T08:36:51.000Z</time>
      </trkpt>
      <trkpt lat="38.16386" lon="-77.827204">
        <ele>129.501415</ele>
        <time>2023-05-21T08:36:57.000Z</time>
      </trkpt>
      <trkpt lat="38.163469" lon="-77.826823">
        <ele>129.52831</ele>
        <time>2023-05-21T08:37:02.000Z</time>
      </trkpt>
      <trkpt lat="38.162973" lon="-77.826463">
        <ele>129.560059</ele>
        <time>2023-05-21T08:37:08.000Z</time>
      </trkpt>
      <trkpt lat="38.162558" lon="-77.826214">
        <ele>129.34187</ele>
        <time>2023-05-21T08:37:13.000Z</time>
      </trkpt>
      <trkpt lat="38.162121" lon="-77.826001">
        <ele>129.053596</ele>
        <time>2023-05-21T08:37:18.000Z</time>
      </trkpt>
      <trkpt lat="38.16153" lon="-77.825743">
        <ele>128.675835</ele>
        <time>2023-05-21T08:37:25.000Z</time>
      </trkpt>
      <trkpt lat="38.161038" lon="-77.825502">
        <ele>128.270924</ele>
        <time>2023-05-21T08:37:31.000Z</time>
      </trkpt>
      <trkpt lat="38.159536" lon="-77.82452">
        <ele>126.411555</ele>
        <time>2023-05-21T08:37:50.000Z</time>
      </trkpt>
      <trkpt lat="38.15814" lon="-77.823832">
        <ele>124.984827</ele>
        <time>2023-05-21T08:38:07.000Z</time>
      </trkpt>
      <trkpt lat="38.157987" lon="-77.823753">
        <ele>124.824011</ele>
        <time>2023-05-21T08:38:09.000Z</time>
      </trkpt>
      <trkpt lat="38.15594" lon="-77.822822">
        <ele>125.511108</ele>
        <time>2023-05-21T08:38:33.000Z</time>
      </trkpt>
      <trkpt lat="38.155266" lon="-77.822467">
        <ele>125.832159</ele>
        <time>2023-05-21T08:38:41.000Z</time>
      </trkpt>
      <trkpt lat="38.154625" lon="-77.822052">
        <ele>126.156625</ele>
        <time>2023-05-21T08:38:49.000Z</time>
      </trkpt>
      <trkpt lat="38.154219" lon="-77.821739">
        <ele>125.852198</ele>
        <time>2023-05-21T08:38:54.000Z</time>
      </trkpt>
      <trkpt lat="38.153631" lon="-77.821245">
        <ele>125.349492</ele>
        <time>2023-05-21T08:39:02.000Z</time>
      </trkpt>
      <trkpt lat="38.153341" lon="-77.820963">
        <ele>125.089489</ele>
        <time>2023-05-21T08:39:06.000Z</time>
      </trkpt>
      <trkpt lat="38.152177" lon="-77.819754">
        <ele>123.318905</ele>
        <time>2023-05-21T08:39:23.000Z</time>
      </trkpt>
      <trkpt lat="38.15202" lon="-77.819599">
        <ele>123.073866</ele>
        <time>2023-05-21T08:39:25.000Z</time>
      </trkpt>
      <trkpt lat="38.151481" lon="-77.81903">
        <ele>122.422062</ele>
        <time>2023-05-21T08:39:33.000Z</time>
      </trkpt>
      <trkpt lat="38.151186" lon="-77.818742">
        <ele>122.240588</ele>
        <time>2023-05-21T08:39:37.000Z</time>
      </trkpt>
      <trkpt lat="38.150933" lon="-77.818526">
        <ele>122.098122</ele>
        <time>2023-05-21T08:39:40.000Z</time>
      </trkpt>
      <trkpt lat="38.150493" lon="-77.818217">
        <ele>121.845699</ele>
        <time>2023-05-21T08:39:46.000Z</time>
      </trkpt>
      <trkpt lat="38.150276" lon="-77.818083">
        <ele>121.736118</ele>
        <time>2023-05-21T08:39:49.000Z</time>
      </trkpt>
      <trkpt lat="38.149878" lon="-77.817906">
        <ele>121.766502</ele>
        <time>2023-05-21T08:39:54.000Z</time>
      </trkpt>
      <trkpt lat="38.149556" lon="-77.817797">
        <ele>121.820815</ele>
        <time>2023-05-21T08:39:58.000Z</time>
      </trkpt>
      <trkpt lat="38.148835" lon="-77.817629">
        <ele>121.943027</ele>
        <time>2023-05-21T08:40:06.000Z</time>
      </trkpt>
      <trkpt lat="38.147148" lon="-77.817283">
        <ele>121.890316</ele>
        <time>2023-05-21T08:40:25.000Z</time>
      </trkpt>
      <trkpt lat="38.146588" lon="-77.817123">
        <ele>121.732959</ele>
        <time>2023-05-21T08:40:31.000Z</time>
      </trkpt>
      <trkpt lat="38.146194" lon="-77.816968">
        <ele>121.322373</ele>
        <time>2023-05-21T08:40:36.000Z</time>
      </trkpt>
      <trkpt lat="38.145845" lon="-77.816783">
        <ele>120.941943</ele>
        <time>2023-05-21T08:40:40.000Z</time>
      </trkpt>
      <trkpt lat="38.145357" lon="-77.816449">
        <ele>120.384935</ele>
        <time>2023-05-21T08:40:46.000Z</time>
      </trkpt>
      <trkpt lat="38.145005" lon="-77.816178">
        <ele>119.927637</ele>
        <time>2023-05-21T08:40:51.000Z</time>
      </trkpt>
      <trkpt lat="38.144717" lon="-77.8159">
        <ele>119.361669</ele>
        <time>2023-05-21T08:40:55.000Z</time>
      </trkpt>
      <trkpt lat="38.144321" lon="-77.815438">
        <ele>118.493955</ele>
        <time>2023-05-21T08:41:01.000Z</time>
      </trkpt>
      <trkpt lat="38.143851" lon="-77.814775">
        <ele>117.362983</ele>
        <time>2023-05-21T08:41:09.000Z</time>
      </trkpt>
      <trkpt lat="38.143571" lon="-77.814344">
        <ele>116.89744</ele>
        <time>2023-05-21T08:41:14.000Z</time>
      </trkpt>
      <trkpt lat="38.143291" lon="-77.813932">
        <ele>116.567659</ele>
        <time>2023-05-21T08:41:19.000Z</time>
      </trkpt>
      <trkpt lat="38.143213" lon="-77.813806">
        <ele>116.459044</ele>
        <time>2023-05-21T08:41:20.000Z</time>
      </trkpt>
      <trkpt lat="38.143298" lon="-77.813937">
        <ele>116.350414</ele>
        <time>2023-05-21T08:41:21.000Z</time>
      </trkpt>
      <trkpt lat="38.143178" lon="-77.813976">
        <ele>116.24845</ele>
        <time>2023-05-21T08:41:22.000Z</time>
      </trkpt>
      <trkpt lat="38.143062" lon="-77.814144">
        <ele>116.1132</ele>
        <time>2023-05-21T08:41:24.000Z</time>
      </trkpt>
      <trkpt lat="38.142872" lon="-77.815119">
        <ele>116.06516</ele>
        <time>2023-05-21T08:41:33.000Z</time>
      </trkpt>
      <trkpt lat="38.142777" lon="-77.815485">
        <ele>116.404568</ele>
        <time>2023-05-21T08:41:36.000Z</time>
      </trkpt>
      <trkpt lat="38.142683" lon="-77.815676">
        <ele>116.616971</ele>
        <time>2023-05-21T08:41:38.000Z</time>
      </trkpt>
      <trkpt lat="38.142228" lon="-77.816443">
        <ele>117.481518</ele>
        <time>2023-05-21T08:41:46.000Z</time>
      </trkpt>
      <trkpt lat="38.141885" lon="-77.816886">
        <ele>117.908967</ele>
        <time>2023-05-21T08:41:51.000Z</time>
      </trkpt>
      <trkpt lat="38.141707" lon="-77.817056">
        <ele>118.05176</ele>
        <time>2023-05-21T08:41:53.000Z</time>
      </trkpt>
      <trkpt lat="38.14129" lon="-77.817385">
        <ele>118.354642</ele>
        <time>2023-05-21T08:41:58.000Z</time>
      </trkpt>
      <trkpt lat="38.140792" lon="-77.817666">
        <ele>118.694827</ele>
        <time>2023-05-21T08:42:04.000Z</time>
      </trkpt>
      <trkpt lat="38.140186" lon="-77.817952">
        <ele>118.552552</ele>
        <time>2023-05-21T08:42:11.000Z</time>
      </trkpt>
      <trkpt lat="38.139439" lon="-77.818277">
        <ele>117.751676</ele>
        <time>2023-05-21T08:42:20.000Z</time>
      </trkpt>
      <trkpt lat="38.139057" lon="-77.818292">
        <ele>117.355342</ele>
        <time>2023-05-21T08:42:24.000Z</time>
      </trkpt>
      <trkpt lat="38.138301" lon="-77.818124">
        <ele>116.924255</ele>
        <time>2023-05-21T08:42:33.000Z</time>
      </trkpt>
      <trkpt lat="38.13747" lon="-77.817808">
        <ele>116.680323</ele>
        <time>2023-05-21T08:42:43.000Z</time>
      </trkpt>
      <trkpt lat="38.136653" lon="-77.817755">
        <ele>116.489223</ele>
        <time>2023-05-21T08:42:52.000Z</time>
      </trkpt>
      <trkpt lat="38.135799" lon="-77.817549">
        <ele>116.345542</ele>
        <time>2023-05-21T08:43:02.000Z</time>
      </trkpt>
      <trkpt lat="38.13555" lon="-77.817567">
        <ele>116.302678</ele>
        <time>2023-05-21T08:43:05.000Z</time>
      </trkpt>
      <trkpt lat="38.135374" lon="-77.817614">
        <ele>116.273034</ele>
        <time>2023-05-21T08:43:07.000Z</time>
      </trkpt>
      <trkpt lat="38.134926" lon="-77.817796">
        <ele>116.149881</ele>
        <time>2023-05-21T08:43:12.000Z</time>
      </trkpt>
      <trkpt lat="38.133378" lon="-77.818673">
        <ele>115.656598</ele>
        <time>2023-05-21T08:43:31.000Z</time>
      </trkpt>
      <trkpt lat="38.133027" lon="-77.818816">
        <ele>115.589678</ele>
        <time>2023-05-21T08:43:35.000Z</time>
      </trkpt>
      <trkpt lat="38.132674" lon="-77.818884">
        <ele>115.529039</ele>
        <time>2023-05-21T08:43:39.000Z</time>
      </trkpt>
      <trkpt lat="38.13224" lon="-77.818912">
        <ele>115.45009</ele>
        <time>2023-05-21T08:43:44.000Z</time>
      </trkpt>
      <trkpt lat="38.131841" lon="-77.818972">
        <ele>115.379851</ele>
        <time>2023-05-21T08:43:48.000Z</time>
      </trkpt>
      <trkpt lat="38.131692" lon="-77.818985">
        <ele>115.342588</ele>
        <time>2023-05-21T08:43:50.000Z</time>
      </trkpt>
      <trkpt lat="38.131209" lon="-77.818902">
        <ele>115.217529</ele>
        <time>2023-05-21T08:43:55.000Z</time>
      </trkpt>
      <trkpt lat="38.130972" lon="-77.818923">
        <ele>115.159373</ele>
        <time>2023-05-21T08:43:58.000Z</time>
      </trkpt>
      <trkpt lat="38.130786" lon="-77.818986">
        <ele>115.109258</ele>
        <time>2023-05-21T08:44:00.000Z</time>
      </trkpt>
      <trkpt lat="38.130253" lon="-77.819347">
        <ele>114.958689</ele>
        <time>2023-05-21T08:44:07.000Z</time>
      </trkpt>
      <trkpt lat="38.129342" lon="-77.819608">
        <ele>114.805394</ele>
        <time>2023-05-21T08:44:17.000Z</time>
      </trkpt>
      <trkpt lat="38.128389" lon="-77.820208">
        <ele>114.625257</ele>
        <time>2023-05-21T08:44:29.000Z</time>
      </trkpt>
      <trkpt lat="38.127801" lon="-77.820471">
        <ele>114.347907</ele>
        <time>2023-05-21T08:44:36.000Z</time>
      </trkpt>
      <trkpt lat="38.126927" lon="-77.820978">
        <ele>113.907981</ele>
        <time>2023-05-21T08:44:47.000Z</time>
      </trkpt>
      <trkpt lat="38.126371" lon="-77.821246">
        <ele>113.646606</ele>
        <time>2023-05-21T08:44:54.000Z</time>
      </trkpt>
      <trkpt lat="38.126096" lon="-77.821459">
        <ele>113.508179</ele>
        <time>2023-05-21T08:44:58.000Z</time>
      </trkpt>
      <trkpt lat="38.125306" lon="-77.822184">
        <ele>113.101748</ele>
        <time>2023-05-21T08:45:09.000Z</time>
      </trkpt>
      <trkpt lat="38.124783" lon="-77.822486">
        <ele>112.855809</ele>
        <time>2023-05-21T08:45:15.000Z</time>
      </trkpt>
      <trkpt lat="38.124464" lon="-77.822743">
        <ele>112.692898</ele>
        <time>2023-05-21T08:45:19.000Z</time>
      </trkpt>
      <trkpt lat="38.124192" lon="-77.822914">
        <ele>112.562493</ele>
        <time>2023-05-21T08:45:22.000Z</time>
      </trkpt>
      <trkpt lat="38.123787" lon="-77.823045">
        <ele>112.379381</ele>
        <time>2023-05-21T08:45:27.000Z</time>
      </trkpt>
      <trkpt lat="38.123043" lon="-77.823247">
        <ele>111.965823</ele>
        <time>2023-05-21T08:45:35.000Z</time>
      </trkpt>
      <trkpt lat="38.122732" lon="-77.823272">
        <ele>111.782415</ele>
        <time>2023-05-21T08:45:38.000Z</time>
      </trkpt>
      <trkpt lat="38.121908" lon="-77.823197">
        <ele>111.293949</ele>
        <time>2023-05-21T08:45:47.000Z</time>
      </trkpt>
      <trkpt lat="38.121133" lon="-77.823292">
        <ele>111.375024</ele>
        <time>2023-05-21T08:45:56.000Z</time>
      </trkpt>
      <trkpt lat="38.12084" lon="-77.823241">
        <ele>111.428331</ele>
        <time>2023-05-21T08:45:59.000Z</time>
      </trkpt>
      <trkpt lat="38.120637" lon="-77.823175">
        <ele>111.465444</ele>
        <time>2023-05-21T08:46:01.000Z</time>
      </trkpt>
      <trkpt lat="38.120195" lon="-77.822953">
        <ele>111.548985</ele>
        <time>2023-05-21T08:46:06.000Z</time>
      </trkpt>
      <trkpt lat="38.119966" lon="-77.82287">
        <ele>111.567616</ele>
        <time>2023-05-21T08:46:09.000Z</time>
      </trkpt>
      <trkpt lat="38.119774" lon="-77.822861">
        <ele>111.563773</ele>
        <time>2023-05-21T08:46:11.000Z</time>
      </trkpt>
      <trkpt lat="38.119385" lon="-77.823023">
        <ele>111.556326</ele>
        <time>2023-05-21T08:46:16.000Z</time>
      </trkpt>
      <trkpt lat="38.119163" lon="-77.823175">
        <ele>111.551448</ele>
        <time>2023-05-21T08:46:19.000Z</time>
      </trkpt>
      <trkpt lat="38.11846" lon="-77.823955">
        <ele>111.35821</ele>
        <time>2023-05-21T08:46:29.000Z</time>
      </trkpt>
      <trkpt lat="38.118288" lon="-77.824283">
        <ele>110.817152</ele>
        <time>2023-05-21T08:46:32.000Z</time>
      </trkpt>
      <trkpt lat="38.118198" lon="-77.8245">
        <ele>110.464769</ele>
        <time>2023-05-21T08:46:34.000Z</time>
      </trkpt>
      <trkpt lat="38.118141" lon="-77.824856">
        <ele>109.984829</ele>
        <time>2023-05-21T08:46:37.000Z</time>
      </trkpt>
      <trkpt lat="38.118125" lon="-77.825719">
        <ele>108.819912</ele>
        <time>2023-05-21T08:46:45.000Z</time>
      </trkpt>
      <trkpt lat="38.118014" lon="-77.826542">
        <ele>107.09987</ele>
        <time>2023-05-21T08:46:52.000Z</time>
      </trkpt>
      <trkpt lat="38.118016" lon="-77.82849">
        <ele>102.571756</ele>
        <time>2023-05-21T08:47:09.000Z</time>
      </trkpt>
      <trkpt lat="38.117939" lon="-77.828899">
        <ele>101.832611</ele>
        <time>2023-05-21T08:47:13.000Z</time>
      </trkpt>
      <trkpt lat="38.117866" lon="-77.829042">
        <ele>101.527738</ele>
        <time>2023-05-21T08:47:14.000Z</time>
      </trkpt>
      <trkpt lat="38.117693" lon="-77.829333">
        <ele>100.853525</ele>
        <time>2023-05-21T08:47:17.000Z</time>
      </trkpt>
      <trkpt lat="38.117257" lon="-77.829872">
        <ele>99.49737</ele>
        <time>2023-05-21T08:47:24.000Z</time>
      </trkpt>
      <trkpt lat="38.116455" lon="-77.831047">
        <ele>96.269021</ele>
        <time>2023-05-21T08:47:38.000Z</time>
      </trkpt>
      <trkpt lat="38.116272" lon="-77.831239">
        <ele>95.656479</ele>
        <time>2023-05-21T08:47:41.000Z</time>
      </trkpt>
      <trkpt lat="38.115904" lon="-77.831452">
        <ele>94.533702</ele>
        <time>2023-05-21T08:47:45.000Z</time>
      </trkpt>
      <trkpt lat="38.115601" lon="-77.831575">
        <ele>93.494621</ele>
        <time>2023-05-21T08:47:49.000Z</time>
      </trkpt>
      <trkpt lat="38.115341" lon="-77.831728">
        <ele>92.330235</ele>
        <time>2023-05-21T08:47:52.000Z</time>
      </trkpt>
      <trkpt lat="38.114217" lon="-77.832694">
        <ele>86.588283</ele>
        <time>2023-05-21T08:48:07.000Z</time>
      </trkpt>
      <trkpt lat="38.113832" lon="-77.832977">
        <ele>85.1296976357</ele>
        <time>2023-05-21T08:48:12.000Z</time>
      </trkpt>
      <trkpt lat="38.113768" lon="-77.833028">
        <ele>84.8819634662</ele>
        <time>2023-05-21T08:48:13.000Z</time>
      </trkpt>
      <trkpt lat="38.113676" lon="-77.833152">
        <ele>84.4421806046</ele>
        <time>2023-05-21T08:48:14.000Z</time>
      </trkpt>
      <trkpt lat="38.113631" lon="-77.83332">
        <ele>83.9842537852</ele>
        <time>2023-05-21T08:48:16.000Z</time>
      </trkpt>
      <trkpt lat="38.113649" lon="-77.833485">
        <ele>83.5544276918</ele>
        <time>2023-05-21T08:48:17.000Z</time>
      </trkpt>
      <trkpt lat="38.113785" lon="-77.833868">
        <ele>82.4701784189</ele>
        <time>2023-05-21T08:48:21.000Z</time>
      </trkpt>
      <trkpt lat="38.114092" lon="-77.834522">
        <ele>80.5051252268</ele>
        <time>2023-05-21T08:48:28.000Z</time>
      </trkpt>
    </trkseg>
  </trk>
</gpx>

<!--
Performance optimized by W3 Total Cache. Learn more: https://www.boldgrid.com/w3-total-cache/?utm_source=w3tc&utm_medium=footer_comment&utm_campaign=free_plugin

Page Caching using Disk: Enhanced{w3tc_pagecache_reject_reason} 

Served from: www.aquabike.world @ 2026-05-11 00:10:10 by W3 Total Cache
-->